createdAt,value
2023-02-28T00:01:35.879Z,1.36
2023-02-28T00:04:03.740Z,1.33
2023-02-28T00:06:36.922Z,1.31
2023-02-28T00:09:08.773Z,1.29
2023-02-28T00:11:39.124Z,1.25
2023-02-28T00:14:06.631Z,1.21
2023-02-28T00:16:37.083Z,1.20
2023-02-28T00:19:04.782Z,1.18
2023-02-28T00:21:32.420Z,1.16
2023-02-28T00:24:00.193Z,1.11
2023-02-28T00:29:20.649Z,1.07
2023-02-28T00:32:03.412Z,1.01
2023-02-28T00:34:49.197Z,0.97
2023-02-28T00:38:00.609Z,0.90
2023-02-28T00:40:39.641Z,0.94
2023-02-28T00:43:36.726Z,0.94
2023-02-28T00:46:05.505Z,0.92
2023-02-28T00:48:36.967Z,0.90
2023-02-28T00:51:08.281Z,0.90
2023-02-28T00:59:19.469Z,0.91
2023-02-28T01:02:06.068Z,0.89
2023-02-28T01:07:37.870Z,0.89
2023-02-28T01:10:12.324Z,0.86
2023-02-28T01:12:40.888Z,0.84
2023-02-28T01:15:11.809Z,0.82
2023-02-28T01:17:42.531Z,0.79
2023-02-28T01:20:20.240Z,0.76
2023-02-28T01:22:56.639Z,0.72
2023-02-28T01:25:45.362Z,0.71
2023-02-28T01:28:12.717Z,0.66
2023-02-28T01:30:40.387Z,0.64
2023-02-28T01:33:07.680Z,0.65
2023-02-28T01:35:36.828Z,0.63
2023-02-28T01:38:21.221Z,0.61
2023-02-28T01:41:02.901Z,0.63
2023-02-28T01:44:18.961Z,0.65
2023-02-28T01:46:46.380Z,0.63
2023-02-28T01:49:41.706Z,0.63
2023-02-28T01:52:26.882Z,0.61
2023-02-28T01:55:05.623Z,0.59
2023-02-28T02:00:53.348Z,0.59
2023-02-28T02:03:56.474Z,0.57
2023-02-28T02:06:44.361Z,0.54
2023-02-28T02:09:13.339Z,0.54
2023-02-28T02:11:44.420Z,0.53
2023-02-28T02:14:36.018Z,0.52
2023-02-28T02:18:02.378Z,0.50
2023-02-28T02:21:27.665Z,0.48
2023-02-28T02:24:06.968Z,0.49
2023-02-28T02:27:17.426Z,0.52
2023-02-28T02:29:48.810Z,0.54
2023-02-28T02:32:40.884Z,0.56
2023-02-28T02:35:31.463Z,0.55
2023-02-28T02:38:10.042Z,0.58
2023-02-28T02:41:10.807Z,0.58
2023-02-28T02:43:48.115Z,0.52
2023-02-28T02:46:30.026Z,0.51
2023-02-28T02:49:02.814Z,0.47
2023-02-28T02:51:42.917Z,0.48
2023-02-28T02:54:22.071Z,0.46
2023-02-28T02:56:53.761Z,0.46
2023-02-28T02:59:25.032Z,0.45
2023-02-28T03:02:00.912Z,0.42
2023-02-28T03:04:40.044Z,0.42
2023-02-28T03:07:16.632Z,0.42
2023-02-28T03:09:56.299Z,0.41
2023-02-28T03:12:48.305Z,0.40
2023-02-28T03:15:33.740Z,0.40
2023-02-28T03:18:19.568Z,0.44
2023-02-28T03:21:20.681Z,0.46
2023-02-28T03:24:06.125Z,0.48
2023-02-28T03:26:49.675Z,0.51
2023-02-28T03:29:49.610Z,0.56
2023-02-28T03:33:46.049Z,0.64
2023-02-28T03:40:31.590Z,0.67
2023-02-28T03:43:13.750Z,0.72
2023-02-28T03:45:51.487Z,0.74
2023-02-28T03:48:40.124Z,0.78
2023-02-28T03:51:21.935Z,0.84
2023-02-28T03:54:11.324Z,0.86
2023-02-28T03:56:54.103Z,0.89
2023-02-28T03:59:32.324Z,0.94
2023-02-28T04:02:00.532Z,0.95
2023-02-28T04:04:27.900Z,1.00
2023-02-28T04:07:09.348Z,1.04
2023-02-28T04:09:36.769Z,1.05
2023-02-28T04:12:04.595Z,1.04
2023-02-28T04:14:31.797Z,1.08
2023-02-28T04:16:58.874Z,1.12
2023-02-28T04:19:26.071Z,1.19
2023-02-28T04:21:54.814Z,1.24
2023-02-28T04:24:25.667Z,1.28
2023-02-28T04:26:56.726Z,1.27
2023-02-28T04:29:31.758Z,1.33
2023-02-28T04:32:01.288Z,1.29
2023-02-28T04:34:30.955Z,1.31
2023-02-28T04:37:12.462Z,1.33
2023-02-28T04:39:40.983Z,1.35
2023-02-28T04:42:08.336Z,1.38
2023-02-28T04:44:35.668Z,1.40
2023-02-28T04:47:02.702Z,1.42
2023-02-28T04:49:29.886Z,1.49
2023-02-28T04:51:57.202Z,1.50
2023-02-28T04:54:24.468Z,1.51
2023-02-28T04:56:51.972Z,1.51
2023-02-28T04:59:19.536Z,1.54
2023-02-28T05:01:49.780Z,1.53
2023-02-28T05:04:17.459Z,1.55
2023-02-28T05:06:45.132Z,1.55
2023-02-28T05:09:13.708Z,1.57
2023-02-28T05:11:41.599Z,1.66
2023-02-28T05:14:15.112Z,1.69
2023-02-28T05:16:42.933Z,1.71
2023-02-28T05:19:10.469Z,1.70
2023-02-28T05:21:53.501Z,1.73
2023-02-28T05:24:23.936Z,1.74
2023-02-28T05:26:54.110Z,1.74
2023-02-28T05:29:21.645Z,1.75
2023-02-28T05:31:49.623Z,1.75
2023-02-28T05:34:19.847Z,1.74
2023-02-28T05:36:47.133Z,1.76
2023-02-28T05:39:14.428Z,1.77
2023-02-28T05:41:44.842Z,1.77
2023-02-28T05:44:13.415Z,1.76
2023-02-28T05:46:41.057Z,1.75
2023-02-28T05:49:08.206Z,1.77
2023-02-28T05:51:37.490Z,1.77
2023-02-28T05:54:05.181Z,1.80
2023-02-28T05:56:32.858Z,1.78
2023-02-28T05:58:59.970Z,1.77
2023-02-28T06:01:42.706Z,1.76
2023-02-28T06:04:22.364Z,1.74
2023-02-28T06:06:58.563Z,1.73
2023-02-28T06:09:26.264Z,1.70
2023-02-28T06:11:53.742Z,1.67
2023-02-28T06:14:22.208Z,1.65
2023-02-28T06:16:49.962Z,1.65
2023-02-28T06:19:17.648Z,1.66
2023-02-28T06:21:44.960Z,1.67
2023-02-28T06:24:12.265Z,1.67
2023-02-28T06:26:39.659Z,1.68
2023-02-28T06:29:07.120Z,1.69
2023-02-28T06:31:34.608Z,1.73
2023-02-28T06:34:01.986Z,1.77
2023-02-28T06:36:29.233Z,1.80
2023-02-28T06:38:59.504Z,1.82
2023-02-28T06:41:28.909Z,1.85
2023-02-28T06:43:59.677Z,1.89
2023-02-28T06:46:27.132Z,1.95
2023-02-28T06:51:52.566Z,2.07
2023-02-28T06:54:23.124Z,2.10
2023-02-28T06:56:55.399Z,2.15
2023-02-28T06:59:23.097Z,2.17
2023-02-28T07:01:53.445Z,2.15
2023-02-28T07:04:49.411Z,2.18
2023-02-28T07:07:16.868Z,2.21
2023-02-28T07:09:44.063Z,2.24
2023-02-28T07:12:17.744Z,2.29
2023-02-28T07:15:12.620Z,2.31
2023-02-28T07:21:38.608Z,2.58
2023-02-28T07:25:29.321Z,2.73
2023-02-28T07:28:41.961Z,2.94
2023-02-28T07:31:20.776Z,3.10
2023-02-28T07:34:10.145Z,3.24
2023-02-28T07:36:40.196Z,3.27
2023-02-28T07:39:07.351Z,3.34
2023-02-28T07:41:35.089Z,3.38
2023-02-28T07:44:02.713Z,3.37
2023-02-28T07:46:37.849Z,3.31
2023-02-28T07:49:07.791Z,3.29
2023-02-28T07:51:44.134Z,3.28
2023-02-28T07:54:11.682Z,3.35
2023-02-28T07:56:38.802Z,3.45
2023-02-28T07:59:06.340Z,3.52
2023-02-28T08:01:33.695Z,3.64
2023-02-28T08:04:01.436Z,3.79
2023-02-28T08:06:28.759Z,3.89
2023-02-28T08:08:57.197Z,3.94
2023-02-28T08:11:25.753Z,3.95
2023-02-28T08:13:56.734Z,3.93
2023-02-28T08:16:25.233Z,3.88
2023-02-28T08:18:57.404Z,3.86
2023-02-28T08:21:24.511Z,3.85
2023-02-28T08:23:54.949Z,3.83
2023-02-28T08:26:25.999Z,3.81
2023-02-28T08:28:53.258Z,3.81
2023-02-28T08:31:23.217Z,3.84
2023-02-28T08:33:53.021Z,3.87
2023-02-28T08:36:21.904Z,3.89
2023-02-28T08:38:49.081Z,3.91
2023-02-28T08:41:17.392Z,3.95
2023-02-28T08:43:46.039Z,4.00
2023-02-28T08:46:14.950Z,4.02
2023-02-28T08:48:42.607Z,4.06
2023-02-28T08:51:19.542Z,4.09
2023-02-28T08:53:47.177Z,4.11
2023-02-28T08:56:17.104Z,4.16
2023-02-28T08:58:45.984Z,4.21
2023-02-28T09:01:18.995Z,4.29
2023-02-28T09:03:48.484Z,4.31
2023-02-28T09:06:18.112Z,4.34
2023-02-28T09:08:45.621Z,4.37
2023-02-28T09:11:15.750Z,4.40
2023-02-28T09:13:43.113Z,4.44
2023-02-28T09:16:15.353Z,4.51
2023-02-28T09:18:42.971Z,4.53
2023-02-28T09:21:15.233Z,4.56
2023-02-28T09:23:44.875Z,4.59
2023-02-28T09:26:18.734Z,4.65
2023-02-28T09:28:46.334Z,4.68
2023-02-28T09:31:24.261Z,4.74
2023-02-28T09:33:55.266Z,4.77
2023-02-28T09:36:28.962Z,4.80
2023-02-28T09:39:01.660Z,4.84
2023-02-28T09:41:52.133Z,4.88
2023-02-28T09:44:42.845Z,4.93
2023-02-28T09:47:45.718Z,4.98
2023-02-28T09:50:28.132Z,5.04
2023-02-28T09:52:56.889Z,5.08
2023-02-28T09:55:46.486Z,5.10
2023-02-28T09:58:36.250Z,5.19
2023-02-28T10:01:22.751Z,5.24
2023-02-28T10:04:38.149Z,5.27
2023-02-28T10:07:44.304Z,5.31
2023-02-28T10:10:34.042Z,5.37
2023-02-28T10:13:05.711Z,5.44
2023-02-28T10:15:35.568Z,5.49
2023-02-28T10:18:12.839Z,5.53
2023-02-28T10:20:43.748Z,5.57
2023-02-28T10:23:24.874Z,5.60
2023-02-28T10:26:02.381Z,5.62
2023-02-28T10:28:32.674Z,5.65
2023-02-28T10:31:02.437Z,5.68
2023-02-28T10:33:35.812Z,5.73
2023-02-28T10:36:07.793Z,5.74
2023-02-28T10:38:40.679Z,5.79
2023-02-28T10:41:37.201Z,5.84
2023-02-28T10:44:23.233Z,5.87
2023-02-28T10:46:51.953Z,5.93
2023-02-28T10:49:30.868Z,6.01
2023-02-28T10:52:02.238Z,6.06
2023-02-28T10:54:36.601Z,6.09
2023-02-28T10:57:19.387Z,6.13
2023-02-28T10:59:51.260Z,6.13
2023-02-28T11:02:39.450Z,6.18
2023-02-28T11:05:35.320Z,6.22
2023-02-28T11:08:13.648Z,6.26
2023-02-28T11:10:45.203Z,6.29
2023-02-28T11:13:23.263Z,6.29
2023-02-28T11:16:01.371Z,6.26
2023-02-28T11:18:33.522Z,6.29
2023-02-28T11:21:05.523Z,6.32
2023-02-28T11:23:38.017Z,6.32
2023-02-28T11:26:06.138Z,6.34
2023-02-28T11:28:39.454Z,6.36
2023-02-28T11:31:12.667Z,6.40
2023-02-28T11:33:56.808Z,6.40
2023-02-28T11:36:32.635Z,6.42
2023-02-28T11:39:13.204Z,6.48
2023-02-28T11:42:06.342Z,6.53
2023-02-28T11:44:33.555Z,6.56
2023-02-28T11:47:07.953Z,6.59
2023-02-28T11:50:04.599Z,6.64
2023-02-28T11:52:58.855Z,6.64
2023-02-28T11:55:32.880Z,6.63
2023-02-28T11:58:34.042Z,6.65
2023-02-28T12:01:33.741Z,6.67
2023-02-28T12:04:46.887Z,6.73
2023-02-28T12:07:50.361Z,6.76
2023-02-28T12:10:27.719Z,6.74
2023-02-28T12:13:13.487Z,6.73
2023-02-28T12:16:01.875Z,6.67
2023-02-28T12:19:27.312Z,6.66
2023-02-28T12:22:23.526Z,6.75
2023-02-28T12:25:07.342Z,6.84
2023-02-28T12:27:46.801Z,6.86
2023-02-28T12:30:29.327Z,6.88
2023-02-28T12:33:13.519Z,6.92
2023-02-28T12:35:58.026Z,6.92
2023-02-28T12:38:45.503Z,6.89
2023-02-28T12:41:43.789Z,6.88
2023-02-28T12:44:21.463Z,6.87
2023-02-28T12:47:02.652Z,6.93
2023-02-28T12:49:51.993Z,6.98
2023-02-28T12:52:45.488Z,7.02
2023-02-28T12:55:34.598Z,7.00
2023-02-28T12:58:53.199Z,6.98
2023-02-28T13:02:09.502Z,6.99
2023-02-28T13:04:42.878Z,6.99
2023-02-28T13:07:25.892Z,7.02
2023-02-28T13:09:59.344Z,7.02
2023-02-28T13:12:27.941Z,7.08
2023-02-28T13:15:29.240Z,7.10
2023-02-28T13:18:05.286Z,7.11
2023-02-28T13:20:48.143Z,7.11
2023-02-28T13:23:53.372Z,7.12
2023-02-28T13:26:20.893Z,7.17
2023-02-28T13:28:56.431Z,7.20
2023-02-28T13:31:25.825Z,7.21
2023-02-28T13:33:57.775Z,7.21
2023-02-28T13:36:32.838Z,7.22
2023-02-28T13:39:24.593Z,7.21
2023-02-28T13:41:52.042Z,7.24
2023-02-28T13:44:27.521Z,7.23
2023-02-28T13:46:55.130Z,7.24
2023-02-28T13:49:29.416Z,7.26
2023-02-28T13:52:25.316Z,7.28
2023-02-28T13:55:23.531Z,7.30
2023-02-28T13:58:10.250Z,7.30
2023-02-28T14:01:00.481Z,7.30
2023-02-28T14:04:16.860Z,7.26
2023-02-28T14:06:56.673Z,7.24
2023-02-28T14:09:30.674Z,7.23
2023-02-28T14:11:58.754Z,7.21
2023-02-28T14:14:37.986Z,7.20
2023-02-28T14:17:10.647Z,7.15
2023-02-28T14:19:39.688Z,7.17
2023-02-28T14:22:06.549Z,7.18
2023-02-28T14:24:42.355Z,7.18
2023-02-28T14:27:27.908Z,7.17
2023-02-28T14:30:26.106Z,7.15
2023-02-28T14:33:18.048Z,7.12
2023-02-28T14:36:37.462Z,7.10
2023-02-28T14:39:31.926Z,7.08
2023-02-28T14:42:04.357Z,7.08
2023-02-28T14:44:31.525Z,7.08
2023-02-28T14:47:06.721Z,7.06
2023-02-28T14:49:43.743Z,7.08
2023-02-28T14:52:11.050Z,7.08
2023-02-28T14:54:40.216Z,7.11
2023-02-28T14:57:21.225Z,7.08
2023-02-28T14:59:59.200Z,7.08
2023-02-28T15:02:30.815Z,7.01
2023-02-28T15:05:01.778Z,6.95
2023-02-28T15:07:32.339Z,6.93
2023-02-28T15:10:24.703Z,6.93
2023-02-28T15:13:07.729Z,6.92
2023-02-28T15:16:04.167Z,6.93
2023-02-28T15:18:58.514Z,6.92
2023-02-28T15:21:40.514Z,6.92
2023-02-28T15:24:24.867Z,6.89
2023-02-28T15:27:00.070Z,6.85
2023-02-28T15:29:31.040Z,6.82
2023-02-28T15:32:08.568Z,6.81
2023-02-28T15:34:44.282Z,6.78
2023-02-28T15:37:47.871Z,6.77
2023-02-28T15:40:37.655Z,6.75
2023-02-28T15:43:13.443Z,6.74
2023-02-28T15:45:56.257Z,6.70
2023-02-28T15:48:27.329Z,6.68
2023-02-28T15:50:59.884Z,6.68
2023-02-28T15:53:34.419Z,6.64
2023-02-28T15:56:07.770Z,6.65
2023-02-28T15:58:37.386Z,6.62
2023-02-28T16:01:31.443Z,6.60
2023-02-28T16:04:07.281Z,6.53
2023-02-28T16:07:00.890Z,6.49
2023-02-28T16:09:28.494Z,6.45
2023-02-28T16:12:00.304Z,6.43
2023-02-28T16:14:31.122Z,6.39
2023-02-28T16:17:06.170Z,6.35
2023-02-28T16:19:34.651Z,6.31
2023-02-28T16:22:02.513Z,6.34
2023-02-28T16:24:29.738Z,6.41
2023-02-28T16:26:58.177Z,6.47
2023-02-28T16:29:33.240Z,6.51
2023-02-28T16:32:01.496Z,6.51
2023-02-28T16:34:28.810Z,6.48
2023-02-28T16:36:56.181Z,6.46
2023-02-28T16:39:23.608Z,6.38
2023-02-28T16:41:54.234Z,6.28
2023-02-28T16:44:37.029Z,6.17
2023-02-28T16:47:05.379Z,6.08
2023-02-28T16:49:33.091Z,6.01
2023-02-28T16:52:00.338Z,5.93
2023-02-28T16:54:27.633Z,5.83
2023-02-28T16:56:54.861Z,5.75
2023-02-28T16:59:27.327Z,5.66
2023-02-28T17:01:58.759Z,5.58
2023-02-28T17:04:27.836Z,5.49
2023-02-28T17:06:55.210Z,5.42
2023-02-28T17:09:30.788Z,5.34
2023-02-28T17:12:04.201Z,5.28
2023-02-28T17:14:31.362Z,5.23
2023-02-28T17:17:01.451Z,5.17
2023-02-28T17:19:29.092Z,5.14
2023-02-28T17:21:56.275Z,5.09
2023-02-28T17:24:30.966Z,5.04
2023-02-28T17:26:59.080Z,5.00
2023-02-28T17:29:26.116Z,4.96
2023-02-28T17:31:54.519Z,4.88
2023-02-28T17:34:22.592Z,4.86
2023-02-28T17:36:51.986Z,4.79
2023-02-28T17:39:26.954Z,4.73
2023-02-28T17:41:56.273Z,4.66
2023-02-28T17:44:28.835Z,4.58
2023-02-28T17:46:57.300Z,4.50
2023-02-28T17:49:28.302Z,4.42
2023-02-28T17:51:59.099Z,4.36
2023-02-28T17:55:10.351Z,4.28
2023-02-28T17:58:08.992Z,4.18
2023-02-28T18:01:38.193Z,4.08
2023-02-28T18:07:20.373Z,3.91
2023-02-28T18:10:04.238Z,3.86
2023-02-28T18:13:00.651Z,3.82
2023-02-28T18:18:19.169Z,3.67
2023-02-28T18:20:49.460Z,3.57
2023-02-28T18:23:25.187Z,3.55
2023-02-28T18:26:01.246Z,3.52
2023-02-28T18:28:37.858Z,3.47
2023-02-28T18:31:21.928Z,3.44
2023-02-28T18:34:14.053Z,3.39
2023-02-28T18:37:12.605Z,3.38
2023-02-28T18:39:45.985Z,3.32
2023-02-28T18:42:22.702Z,3.30
2023-02-28T18:44:50.234Z,3.25
2023-02-28T18:47:18.850Z,3.21
2023-02-28T18:50:01.981Z,3.15
2023-02-28T18:52:31.490Z,3.10
2023-02-28T18:54:59.120Z,3.00
2023-02-28T18:57:26.938Z,2.93
2023-02-28T18:59:54.547Z,2.82
2023-02-28T19:02:22.029Z,2.74
2023-02-28T19:04:49.594Z,2.66
2023-02-28T19:07:16.858Z,2.61
2023-02-28T19:09:44.101Z,2.54
2023-02-28T19:12:11.397Z,2.49
2023-02-28T19:14:38.561Z,2.44
2023-02-28T19:17:05.701Z,2.38
2023-02-28T19:19:32.735Z,2.33
2023-02-28T19:22:02.414Z,2.26
2023-02-28T19:24:29.860Z,2.21
2023-02-28T19:26:57.027Z,2.15
2023-02-28T19:29:24.371Z,2.12
2023-02-28T19:31:53.542Z,2.08
2023-02-28T19:34:20.829Z,2.08
2023-02-28T19:36:48.185Z,2.04
2023-02-28T19:39:15.497Z,2.04
2023-02-28T19:41:42.900Z,2.02
2023-02-28T19:44:10.637Z,2.06
2023-02-28T19:46:38.227Z,2.09
2023-02-28T19:49:05.680Z,2.10
2023-02-28T19:51:34.407Z,2.13
2023-02-28T19:54:01.862Z,2.18
2023-02-28T19:56:29.681Z,2.19
2023-02-28T19:58:58.355Z,2.17
2023-02-28T20:01:25.636Z,2.15
2023-02-28T20:03:53.101Z,2.12
2023-02-28T20:06:20.490Z,2.11
2023-02-28T20:08:47.805Z,2.06
2023-02-28T20:11:17.561Z,2.00
2023-02-28T20:13:48.258Z,1.96
2023-02-28T20:16:19.161Z,1.93
2023-02-28T20:18:51.489Z,1.87
2023-02-28T20:21:19.454Z,1.83
2023-02-28T20:23:48.744Z,1.83
2023-02-28T20:26:22.839Z,1.81
2023-02-28T20:28:50.467Z,1.80
2023-02-28T20:31:25.558Z,1.81
2023-02-28T20:33:53.257Z,1.81
2023-02-28T20:36:21.449Z,1.82
2023-02-28T20:38:49.782Z,1.87
2023-02-28T20:41:17.667Z,1.86
2023-02-28T20:43:46.051Z,1.88
2023-02-28T20:46:13.967Z,1.89
2023-02-28T20:48:41.419Z,1.93
2023-02-28T20:51:12.204Z,1.94
2023-02-28T20:53:39.654Z,1.94
2023-02-28T20:56:18.945Z,1.96
2023-02-28T20:58:52.061Z,1.97
2023-02-28T21:01:28.994Z,1.98
2023-02-28T21:04:06.236Z,2.04
2023-02-28T21:06:40.253Z,2.05
2023-02-28T21:09:10.347Z,2.04
2023-02-28T21:11:39.593Z,2.03
2023-02-28T21:14:12.769Z,2.00
2023-02-28T21:16:44.534Z,1.95
2023-02-28T21:19:20.912Z,1.93
2023-02-28T21:21:48.452Z,1.93
2023-02-28T21:24:19.435Z,1.93
2023-02-28T21:26:57.833Z,1.89
2023-02-28T21:29:25.437Z,1.89
2023-02-28T21:31:53.351Z,1.87
2023-02-28T21:34:21.088Z,1.89
2023-02-28T21:36:48.459Z,1.91
2023-02-28T21:39:23.216Z,1.91
2023-02-28T21:41:50.693Z,1.90
2023-02-28T21:44:23.030Z,1.91
2023-02-28T21:46:55.055Z,1.91
2023-02-28T21:49:23.745Z,1.92
2023-02-28T21:51:50.832Z,1.92
2023-02-28T21:54:18.217Z,1.92
2023-02-28T21:56:45.488Z,1.93
2023-02-28T21:59:12.667Z,1.94
2023-02-28T22:01:45.369Z,1.91
2023-02-28T22:04:22.424Z,1.89
2023-02-28T22:06:58.931Z,1.86
2023-02-28T22:09:26.397Z,1.83
2023-02-28T22:11:56.295Z,1.81
2023-02-28T22:14:23.856Z,1.79
2023-02-28T22:16:54.156Z,1.76
2023-02-28T22:19:26.088Z,1.74
2023-02-28T22:21:54.626Z,1.73
2023-02-28T22:24:24.501Z,1.68
2023-02-28T22:26:53.565Z,1.66
2023-02-28T22:29:21.131Z,1.60
2023-02-28T22:31:51.772Z,1.60
2023-02-28T22:34:19.741Z,1.58
2023-02-28T22:36:47.152Z,1.57
2023-02-28T22:39:17.561Z,1.56
2023-02-28T22:41:45.276Z,1.55
2023-02-28T22:44:12.894Z,1.53
2023-02-28T22:46:43.461Z,1.52
2023-02-28T22:49:10.896Z,1.48
2023-02-28T22:51:38.568Z,1.49
2023-02-28T22:54:06.311Z,1.45
2023-02-28T22:56:34.200Z,1.44
2023-02-28T22:59:02.603Z,1.40
2023-02-28T23:01:33.164Z,1.38
2023-02-28T23:04:03.897Z,1.36
2023-02-28T23:06:42.058Z,1.32
2023-02-28T23:09:32.431Z,1.31
2023-02-28T23:12:08.264Z,1.30
2023-02-28T23:14:45.865Z,1.27
2023-02-28T23:17:23.598Z,1.23
2023-02-28T23:19:55.334Z,1.23
2023-02-28T23:25:26.169Z,1.19
2023-02-28T23:27:59.451Z,1.16
2023-02-28T23:30:26.707Z,1.16
2023-02-28T23:32:56.904Z,1.16
2023-02-28T23:35:32.806Z,1.13
2023-02-28T23:38:12.514Z,1.11
2023-02-28T23:40:45.015Z,1.09
2023-02-28T23:43:35.902Z,1.06
2023-02-28T23:46:16.650Z,1.01
2023-02-28T23:48:47.073Z,0.99
2023-02-28T23:51:26.285Z,0.97
2023-02-28T23:53:59.924Z,0.94
2023-02-28T23:56:45.193Z,0.91
2023-02-28T23:59:28.940Z,0.91
